createdAt,value
2023-02-20T00:00:16.407Z,1.75
2023-02-20T00:05:39.374Z,1.71
2023-02-20T00:10:43.001Z,1.70
2023-02-20T00:15:46.120Z,1.70
2023-02-20T00:20:49.304Z,1.71
2023-02-20T00:25:52.414Z,1.75
2023-02-20T00:30:55.945Z,1.76
2023-02-20T00:35:59.034Z,1.77
2023-02-20T00:41:02.141Z,1.75
2023-02-20T00:46:05.695Z,1.75
2023-02-20T00:51:09.174Z,1.73
2023-02-20T00:56:12.985Z,1.72
2023-02-20T01:01:17.403Z,1.73
2023-02-20T01:06:20.550Z,1.78
2023-02-20T01:11:23.849Z,1.87
2023-02-20T01:16:27.116Z,1.95
2023-02-20T01:21:30.477Z,2.00
2023-02-20T01:26:33.888Z,2.02
2023-02-20T01:31:36.939Z,2.05
2023-02-20T01:36:45.310Z,2.07
2023-02-20T01:41:51.252Z,2.08
2023-02-20T01:46:56.816Z,2.07
2023-02-20T01:52:23.921Z,2.06
2023-02-20T01:57:30.284Z,2.05
2023-02-20T02:02:38.119Z,2.02
2023-02-20T02:07:41.723Z,1.98
2023-02-20T02:12:51.800Z,1.92
2023-02-20T02:18:11.391Z,1.87
2023-02-20T02:23:42.350Z,1.80
2023-02-20T02:29:21.189Z,1.71
2023-02-20T02:35:01.264Z,1.67
2023-02-20T02:40:25.870Z,1.65
2023-02-20T02:45:42.932Z,1.62
2023-02-20T02:50:48.772Z,1.61
2023-02-20T02:55:51.882Z,1.64
2023-02-20T03:01:02.276Z,1.66
2023-02-20T03:06:12.242Z,1.66
2023-02-20T03:11:18.596Z,1.63
2023-02-20T03:16:28.883Z,1.57
2023-02-20T03:21:35.161Z,1.55
2023-02-20T03:26:41.107Z,1.53
2023-02-20T03:32:17.462Z,1.56
2023-02-20T03:37:41.827Z,1.59
2023-02-20T03:43:09.264Z,1.63
2023-02-20T03:48:18.846Z,1.68
2023-02-20T03:53:22.380Z,1.68
2023-02-20T03:58:28.064Z,1.68
2023-02-20T04:03:37.493Z,1.68
2023-02-20T04:09:10.496Z,1.71
2023-02-20T04:14:15.753Z,1.74
2023-02-20T04:19:19.168Z,1.76
2023-02-20T04:24:31.976Z,1.77
2023-02-20T04:29:35.310Z,1.74
2023-02-20T04:34:38.515Z,1.69
2023-02-20T04:39:41.825Z,1.63
2023-02-20T04:44:44.686Z,1.55
2023-02-20T04:49:48.656Z,1.45
2023-02-20T04:54:51.954Z,1.36
2023-02-20T04:59:54.959Z,1.32
2023-02-20T05:04:58.167Z,1.28
2023-02-20T05:10:01.180Z,1.27
2023-02-20T05:15:05.040Z,1.26
2023-02-20T05:20:09.432Z,1.27
2023-02-20T05:25:13.664Z,1.29
2023-02-20T05:30:16.918Z,1.31
2023-02-20T05:35:20.591Z,1.33
2023-02-20T05:40:23.651Z,1.33
2023-02-20T05:45:26.905Z,1.33
2023-02-20T05:50:30.312Z,1.33
2023-02-20T05:55:34.137Z,1.33
2023-02-20T06:00:37.284Z,1.34
2023-02-20T06:05:40.451Z,1.36
2023-02-20T06:10:43.763Z,1.39
2023-02-20T06:15:46.977Z,1.44
2023-02-20T06:20:50.185Z,1.48
2023-02-20T06:25:53.281Z,1.53
2023-02-20T06:30:56.811Z,1.59
2023-02-20T06:36:00.315Z,1.64
2023-02-20T06:41:03.830Z,1.70
2023-02-20T06:46:07.759Z,1.76
2023-02-20T06:51:11.481Z,1.81
2023-02-20T06:56:18.885Z,1.82
2023-02-20T07:01:24.449Z,1.78
2023-02-20T07:06:27.656Z,1.74
2023-02-20T07:11:30.867Z,1.68
2023-02-20T07:16:34.076Z,1.61
2023-02-20T07:21:37.688Z,1.57
2023-02-20T07:26:40.798Z,1.55
2023-02-20T07:31:43.978Z,1.53
2023-02-20T07:36:47.413Z,1.54
2023-02-20T07:41:51.541Z,1.56
2023-02-20T07:46:54.953Z,1.57
2023-02-20T07:51:57.958Z,1.60
2023-02-20T07:57:01.065Z,1.63
2023-02-20T08:02:05.908Z,1.66
2023-02-20T08:07:09.011Z,1.69
2023-02-20T08:12:12.535Z,1.69
2023-02-20T08:17:15.848Z,1.71
2023-02-20T08:22:19.054Z,1.72
2023-02-20T08:27:22.379Z,1.73
2023-02-20T08:32:26.034Z,1.73
2023-02-20T08:37:29.279Z,1.73
2023-02-20T08:42:34.224Z,1.76
2023-02-20T08:47:37.346Z,1.79
2023-02-20T08:52:43.121Z,1.84
2023-02-20T08:57:46.614Z,1.90
2023-02-20T09:02:49.759Z,1.97
2023-02-20T09:07:52.838Z,2.02
2023-02-20T09:12:56.242Z,2.04
2023-02-20T09:17:59.963Z,2.04
2023-02-20T09:23:03.271Z,2.04
2023-02-20T09:28:06.481Z,2.04
2023-02-20T09:33:09.897Z,2.03
2023-02-20T09:38:13.106Z,2.01
2023-02-20T09:43:22.354Z,2.01
2023-02-20T09:48:29.146Z,2.02
2023-02-20T09:53:39.106Z,2.05
2023-02-20T09:58:47.334Z,2.05
2023-02-20T10:03:50.337Z,2.01
2023-02-20T10:08:54.754Z,2.03
2023-02-20T10:14:39.153Z,2.07
2023-02-20T10:19:49.014Z,2.15
2023-02-20T10:24:58.263Z,2.21
2023-02-20T10:30:06.794Z,2.27
2023-02-20T10:35:16.247Z,2.30
2023-02-20T10:40:25.091Z,2.33
2023-02-20T10:45:38.851Z,2.35
2023-02-20T10:51:00.896Z,2.38
2023-02-20T10:56:16.183Z,2.41
2023-02-20T11:01:23.061Z,2.47
2023-02-20T11:07:05.093Z,2.55
2023-02-20T11:12:22.260Z,2.63
2023-02-20T11:17:27.788Z,2.73
2023-02-20T11:22:45.227Z,2.82
2023-02-20T11:27:55.407Z,2.89
2023-02-20T11:33:06.812Z,2.95
2023-02-20T11:38:23.554Z,3.01
2023-02-20T11:43:34.935Z,3.08
2023-02-20T11:48:40.732Z,3.13
2023-02-20T11:53:44.933Z,3.19
2023-02-20T11:58:48.644Z,3.25
2023-02-20T12:03:57.628Z,3.32
2023-02-20T12:09:03.756Z,3.40
2023-02-20T12:14:13.030Z,3.49
2023-02-20T12:19:16.113Z,3.57
2023-02-20T12:24:30.282Z,3.66
2023-02-20T12:29:47.114Z,3.76
2023-02-20T12:35:10.391Z,3.85
2023-02-20T12:40:38.072Z,3.93
2023-02-20T12:45:50.295Z,3.99
2023-02-20T12:51:05.885Z,4.04
2023-02-20T12:56:20.366Z,4.10
2023-02-20T13:01:38.304Z,4.15
2023-02-20T13:06:58.831Z,4.19
2023-02-20T13:12:07.357Z,4.26
2023-02-20T13:17:29.657Z,4.33
2023-02-20T13:22:32.925Z,4.39
2023-02-20T13:27:36.823Z,4.46
2023-02-20T13:32:40.399Z,4.54
2023-02-20T13:37:43.675Z,4.61
2023-02-20T13:42:46.775Z,4.69
2023-02-20T13:47:49.884Z,4.75
2023-02-20T13:52:57.313Z,4.81
2023-02-20T13:58:06.646Z,4.88
2023-02-20T14:03:19.335Z,4.94
2023-02-20T14:08:22.683Z,5.00
2023-02-20T14:13:39.450Z,5.08
2023-02-20T14:18:44.158Z,5.16
2023-02-20T14:23:50.076Z,5.23
2023-02-20T14:28:55.732Z,5.30
2023-02-20T14:34:02.764Z,5.37
2023-02-20T14:39:41.123Z,5.45
2023-02-20T14:44:49.897Z,5.54
2023-02-20T14:49:53.263Z,5.62
2023-02-20T14:55:02.424Z,5.68
2023-02-20T15:00:17.600Z,5.76
2023-02-20T15:05:27.062Z,5.83
2023-02-20T15:10:41.176Z,5.89
2023-02-20T15:15:47.963Z,5.95
2023-02-20T15:20:51.425Z,6.00
2023-02-20T15:25:54.631Z,6.06
2023-02-20T15:31:11.541Z,6.11
2023-02-20T15:36:20.100Z,6.17
2023-02-20T15:41:24.499Z,6.20
2023-02-20T15:46:28.240Z,6.25
2023-02-20T15:51:36.889Z,6.29
2023-02-20T15:56:40.926Z,6.34
2023-02-20T16:01:44.314Z,6.38
2023-02-20T16:06:48.152Z,6.40
2023-02-20T16:11:51.586Z,6.44
2023-02-20T16:16:55.187Z,6.48
2023-02-20T16:22:00.239Z,6.52
2023-02-20T16:27:07.676Z,6.57
2023-02-20T16:32:17.306Z,6.62
2023-02-20T16:37:22.453Z,6.66
2023-02-20T16:42:34.960Z,6.70
2023-02-20T16:47:39.688Z,6.74
2023-02-20T16:52:44.168Z,6.79
2023-02-20T16:57:47.680Z,6.81
2023-02-20T17:02:53.940Z,6.84
2023-02-20T17:07:59.186Z,6.88
2023-02-20T17:13:02.835Z,6.92
2023-02-20T17:18:06.138Z,6.95
2023-02-20T17:23:10.474Z,6.96
2023-02-20T17:28:16.763Z,6.94
2023-02-20T17:33:20.166Z,6.95
2023-02-20T17:38:24.559Z,6.97
2023-02-20T17:43:28.462Z,7.00
2023-02-20T17:48:31.849Z,7.02
2023-02-20T17:53:35.676Z,7.07
2023-02-20T17:58:39.720Z,7.11
2023-02-20T18:03:43.743Z,7.13
2023-02-20T18:08:51.222Z,7.14
2023-02-20T18:13:57.210Z,7.17
2023-02-20T18:19:02.553Z,7.18
2023-02-20T18:24:07.296Z,7.18
2023-02-20T18:29:10.914Z,7.15
2023-02-20T18:34:14.708Z,7.07
2023-02-20T18:39:18.043Z,7.01
2023-02-20T18:44:23.587Z,6.96
2023-02-20T18:49:26.937Z,6.93
2023-02-20T18:54:33.327Z,6.86
2023-02-20T18:59:42.420Z,6.81
2023-02-20T19:04:50.454Z,6.78
2023-02-20T19:09:54.602Z,6.76
2023-02-20T19:14:58.018Z,6.71
2023-02-20T19:20:02.481Z,6.62
2023-02-20T19:25:11.477Z,6.51
2023-02-20T19:30:21.446Z,6.41
2023-02-20T19:35:26.011Z,6.37
2023-02-20T19:40:30.664Z,6.33
2023-02-20T19:45:35.120Z,6.30
2023-02-20T19:50:40.656Z,6.33
2023-02-20T19:55:44.858Z,6.38
2023-02-20T20:00:48.708Z,6.45
2023-02-20T20:05:54.086Z,6.53
2023-02-20T20:10:59.983Z,6.64
2023-02-20T20:16:03.346Z,6.71
2023-02-20T20:21:07.176Z,6.78
2023-02-20T20:26:11.406Z,6.84
2023-02-20T20:31:19.986Z,6.85
2023-02-20T20:36:23.426Z,6.83
2023-02-20T20:41:30.454Z,6.83
2023-02-20T20:46:40.098Z,6.82
2023-02-20T20:51:46.075Z,6.81
2023-02-20T20:56:51.426Z,6.81
2023-02-20T21:01:55.021Z,6.80
2023-02-20T21:06:59.798Z,6.80
2023-02-20T21:12:04.331Z,6.80
2023-02-20T21:17:11.634Z,6.81
2023-02-20T21:22:15.956Z,6.79
2023-02-20T21:27:19.380Z,6.75
2023-02-20T21:32:22.998Z,6.67
2023-02-20T21:37:28.166Z,6.59
2023-02-20T21:42:49.997Z,6.50
2023-02-20T21:47:53.411Z,6.43
2023-02-20T21:52:56.727Z,6.38
2023-02-20T21:57:59.826Z,6.38
2023-02-20T22:03:03.288Z,6.40
2023-02-20T22:08:25.699Z,6.42
2023-02-20T22:13:47.960Z,6.42
2023-02-20T22:19:09.902Z,6.49
2023-02-20T22:24:38.638Z,6.56
2023-02-20T22:30:01.074Z,6.60
2023-02-20T22:35:25.476Z,6.64
2023-02-20T22:40:48.294Z,6.70
2023-02-20T22:46:10.610Z,6.74
2023-02-20T22:51:33.976Z,6.77
2023-02-20T22:56:56.346Z,6.80
2023-02-20T23:02:18.031Z,6.82
2023-02-20T23:07:40.661Z,6.83
2023-02-20T23:13:02.293Z,6.84
2023-02-20T23:18:24.238Z,6.85
2023-02-20T23:23:45.774Z,6.85
2023-02-20T23:29:07.618Z,6.84
2023-02-20T23:34:29.355Z,6.83
2023-02-20T23:39:51.713Z,6.80
2023-02-20T23:45:13.962Z,6.79
2023-02-20T23:50:36.112Z,6.76
2023-02-20T23:55:57.962Z,6.74
